createdAt,value
2019-03-24T00:02:14.970Z,93.97
2019-03-24T00:04:46.002Z,80.20
2019-03-24T00:07:18.455Z,91.83
2019-03-24T00:09:49.554Z,98.10
2019-03-24T00:12:24.456Z,101.70
2019-03-24T00:14:56.695Z,82.53
2019-03-24T00:17:27.815Z,61.60
2019-03-24T00:19:59.240Z,53.37
2019-03-24T00:22:30.260Z,57.97
2019-03-24T00:25:01.439Z,51.27
2019-03-24T00:27:32.621Z,62.30
2019-03-24T00:30:03.664Z,71.43
2019-03-24T00:32:34.728Z,76.27
2019-03-24T00:35:06.146Z,80.53
2019-03-24T00:37:37.279Z,74.83
2019-03-24T00:40:08.784Z,67.27
2019-03-24T00:42:39.806Z,71.53
2019-03-24T00:45:10.810Z,70.93
2019-03-24T00:47:41.800Z,65.80
2019-03-24T00:50:14.758Z,66.37
2019-03-24T00:52:45.853Z,62.27
2019-03-24T00:55:17.020Z,64.63
2019-03-24T00:57:48.172Z,60.13
2019-03-24T01:00:24.032Z,65.70
2019-03-24T01:02:55.198Z,63.73
2019-03-24T01:05:26.165Z,68.13
2019-03-24T01:07:57.238Z,61.30
2019-03-24T01:10:28.319Z,71.07
2019-03-24T01:12:59.324Z,89.13
2019-03-24T01:15:30.360Z,99.53
2019-03-24T01:18:01.335Z,113.40
2019-03-24T01:20:32.431Z,114.23
2019-03-24T01:23:03.563Z,115.53
2019-03-24T01:25:34.657Z,134.47
2019-03-24T01:28:05.632Z,125.80
2019-03-24T01:30:36.713Z,127.97
2019-03-24T01:33:07.772Z,126.80
2019-03-24T01:35:38.832Z,126.03
2019-03-24T01:38:09.886Z,110.47
2019-03-24T01:40:40.858Z,117.80
2019-03-24T01:43:11.882Z,118.03
2019-03-24T01:45:42.910Z,113.57
2019-03-24T01:48:13.984Z,109.27
2019-03-24T01:50:44.970Z,116.40
2019-03-24T01:53:16.061Z,116.33
2019-03-24T01:55:47.147Z,111.63
2019-03-24T01:58:18.206Z,113.80
2019-03-24T02:00:49.255Z,107.57
2019-03-24T02:03:20.324Z,109.20
2019-03-24T02:05:51.399Z,106.70
2019-03-24T02:08:22.840Z,112.87
2019-03-24T02:10:53.830Z,101.60
2019-03-24T02:13:24.955Z,100.27
2019-03-24T02:15:56.020Z,101.20
2019-03-24T02:18:26.948Z,91.23
2019-03-24T02:20:58.070Z,104.27
2019-03-24T02:23:29.187Z,93.93
2019-03-24T02:26:00.271Z,96.53
2019-03-24T02:28:31.360Z,101.40
2019-03-24T02:31:02.405Z,89.13
2019-03-24T02:33:33.449Z,78.43
2019-03-24T02:36:04.404Z,87.73
2019-03-24T02:38:35.813Z,73.17
2019-03-24T02:41:06.815Z,76.33
2019-03-24T02:43:37.858Z,87.20
2019-03-24T02:46:22.874Z,77.43
2019-03-24T02:48:41.528Z,70.97
2019-03-24T02:51:12.572Z,75.57
2019-03-24T02:53:43.674Z,75.23
2019-03-24T02:56:14.700Z,82.87
2019-03-24T02:58:45.805Z,73.80
2019-03-24T03:01:16.781Z,80.47
2019-03-24T03:03:47.818Z,78.40
2019-03-24T03:06:18.846Z,79.40
2019-03-24T03:08:49.909Z,77.17
2019-03-24T03:11:20.926Z,80.57
2019-03-24T03:13:51.939Z,73.57
2019-03-24T03:16:22.882Z,74.43
2019-03-24T03:18:53.974Z,73.80
2019-03-24T03:21:25.012Z,76.53
2019-03-24T03:23:56.157Z,68.97
2019-03-24T03:26:27.177Z,66.13
2019-03-24T03:28:58.214Z,79.83
2019-03-24T03:31:29.323Z,73.10
2019-03-24T03:34:00.409Z,77.40
2019-03-24T03:36:31.460Z,76.20
2019-03-24T03:39:02.526Z,77.67
2019-03-24T03:41:33.910Z,79.47
2019-03-24T03:44:05.013Z,81.90
2019-03-24T03:46:36.049Z,80.43
2019-03-24T03:49:07.236Z,77.10
2019-03-24T03:51:38.258Z,80.33
2019-03-24T03:54:09.427Z,86.60
2019-03-24T03:56:40.442Z,72.60
2019-03-24T03:59:11.465Z,84.43
2019-03-24T04:01:42.674Z,71.00
2019-03-24T04:04:13.865Z,79.40
2019-03-24T04:06:44.861Z,67.07
2019-03-24T04:09:15.907Z,73.57
2019-03-24T04:11:46.993Z,78.77
2019-03-24T04:14:17.998Z,80.53
2019-03-24T04:16:49.107Z,83.47
2019-03-24T04:19:20.243Z,85.03
2019-03-24T04:21:51.251Z,83.57
2019-03-24T04:24:22.233Z,89.07
2019-03-24T04:26:53.269Z,82.37
2019-03-24T04:29:24.230Z,82.40
2019-03-24T04:31:55.282Z,85.97
2019-03-24T04:34:26.354Z,83.30
2019-03-24T04:37:04.268Z,87.00
2019-03-24T04:39:35.262Z,100.23
2019-03-24T04:42:06.679Z,85.27
2019-03-24T04:44:37.808Z,99.90
2019-03-24T04:47:16.292Z,94.73
2019-03-24T04:49:41.472Z,88.33
2019-03-24T04:52:12.580Z,94.87
2019-03-24T04:54:43.636Z,90.03
2019-03-24T04:57:14.632Z,88.30
2019-03-24T04:59:45.736Z,79.90
2019-03-24T05:02:16.714Z,89.77
2019-03-24T05:04:47.713Z,79.50
2019-03-24T05:07:18.858Z,74.63
2019-03-24T05:09:50.634Z,71.57
2019-03-24T05:12:21.628Z,76.20
2019-03-24T05:14:52.764Z,63.00
2019-03-24T05:17:27.252Z,62.60
2019-03-24T05:19:56.496Z,70.43
2019-03-24T05:22:27.457Z,69.70
2019-03-24T05:24:58.441Z,63.90
2019-03-24T05:27:29.505Z,64.40
2019-03-24T05:30:00.521Z,54.90
2019-03-24T05:32:31.537Z,46.47
2019-03-24T05:35:02.732Z,54.90
2019-03-24T05:37:33.749Z,54.27
2019-03-24T05:40:04.854Z,44.93
2019-03-24T05:42:36.919Z,47.97
2019-03-24T05:45:08.200Z,48.83
2019-03-24T05:47:39.285Z,47.83
2019-03-24T05:50:10.681Z,49.90
2019-03-24T05:52:41.759Z,48.23
2019-03-24T05:55:12.756Z,41.80
2019-03-24T05:57:43.819Z,49.90
2019-03-24T06:00:16.022Z,44.73
2019-03-24T06:02:47.205Z,43.03
2019-03-24T06:05:18.305Z,41.37
2019-03-24T06:07:49.398Z,40.73
2019-03-24T06:10:20.435Z,48.33
2019-03-24T06:12:51.492Z,44.17
2019-03-24T06:15:22.588Z,46.90
2019-03-24T06:17:53.588Z,49.77
2019-03-24T06:20:24.589Z,46.80
2019-03-24T06:22:55.617Z,43.90
2019-03-24T06:25:26.696Z,46.07
2019-03-24T06:27:57.684Z,48.60
2019-03-24T06:30:28.797Z,48.40
2019-03-24T06:32:59.792Z,46.77
2019-03-24T06:35:30.873Z,51.13
2019-03-24T06:38:01.875Z,52.20
2019-03-24T06:40:32.883Z,59.10
2019-03-24T06:43:03.981Z,46.73
2019-03-24T06:45:35.000Z,57.17
2019-03-24T06:48:06.152Z,54.80
2019-03-24T06:50:37.220Z,44.97
2019-03-24T06:53:09.954Z,47.60
2019-03-24T06:55:42.068Z,48.60
2019-03-24T06:58:13.174Z,47.97
2019-03-24T07:00:44.188Z,49.20
2019-03-24T07:03:15.199Z,52.50
2019-03-24T07:05:46.457Z,47.07
2019-03-24T07:08:17.508Z,43.57
2019-03-24T07:10:49.972Z,46.20
2019-03-24T07:13:22.303Z,41.70
2019-03-24T07:15:53.513Z,48.17
2019-03-24T07:18:24.602Z,43.63
2019-03-24T07:20:55.769Z,53.43
2019-03-24T07:23:26.864Z,44.03
2019-03-24T07:25:57.965Z,38.00
2019-03-24T07:28:30.203Z,48.80
2019-03-24T07:31:01.426Z,42.77
2019-03-24T07:33:32.552Z,46.53
2019-03-24T07:36:03.908Z,41.07
2019-03-24T07:38:35.026Z,50.37
2019-03-24T07:41:06.283Z,38.37
2019-03-24T07:43:37.460Z,41.67
2019-03-24T07:46:08.459Z,39.93
2019-03-24T07:48:39.528Z,42.63
2019-03-24T07:51:10.859Z,38.77
2019-03-24T07:53:42.083Z,36.40
2019-03-24T07:56:13.236Z,37.13
2019-03-24T07:58:46.006Z,27.40
2019-03-24T08:01:17.034Z,36.57
2019-03-24T08:03:48.095Z,27.47
2019-03-24T08:06:19.100Z,32.00
2019-03-24T08:08:50.155Z,28.90
2019-03-24T08:11:21.359Z,23.23
2019-03-24T08:13:54.203Z,22.80
2019-03-24T08:16:25.259Z,31.27
2019-03-24T08:18:56.302Z,28.60
2019-03-24T08:21:27.339Z,25.40
2019-03-24T08:23:58.407Z,24.83
2019-03-24T08:26:29.407Z,29.23
2019-03-24T08:29:00.496Z,21.20
2019-03-24T08:31:31.512Z,26.13
2019-03-24T08:34:02.554Z,19.77
2019-03-24T08:36:33.679Z,21.73
2019-03-24T08:39:05.695Z,15.10
2019-03-24T08:41:39.284Z,17.77
2019-03-24T08:44:10.395Z,20.83
2019-03-24T08:46:41.434Z,20.53
2019-03-24T08:49:12.462Z,22.87
2019-03-24T08:51:43.539Z,21.50
2019-03-24T08:54:14.590Z,21.00
2019-03-24T08:56:45.668Z,19.17
2019-03-24T08:59:18.698Z,25.17
2019-03-24T09:01:49.938Z,17.77
2019-03-24T09:04:22.234Z,20.40
2019-03-24T09:06:53.358Z,15.70
2019-03-24T09:09:25.476Z,19.50
2019-03-24T09:11:57.042Z,22.17
2019-03-24T09:14:28.062Z,19.97
2019-03-24T09:16:59.206Z,19.13
2019-03-24T09:19:30.273Z,19.00
2019-03-24T09:22:01.695Z,20.23
2019-03-24T09:24:32.864Z,18.47
2019-03-24T09:27:03.958Z,17.97
2019-03-24T09:29:35.054Z,18.53
2019-03-24T09:32:06.119Z,26.03
2019-03-24T09:34:37.243Z,20.70
2019-03-24T09:37:08.328Z,14.90
2019-03-24T09:39:39.469Z,16.23
2019-03-24T09:42:10.483Z,18.00
2019-03-24T09:44:41.569Z,18.57
2019-03-24T09:47:12.612Z,13.73
2019-03-24T09:49:43.680Z,20.90
2019-03-24T09:52:14.734Z,19.83
2019-03-24T09:54:45.915Z,30.63
2019-03-24T09:57:18.037Z,19.37
2019-03-24T09:59:49.289Z,16.73
2019-03-24T10:02:20.339Z,16.67
2019-03-24T10:04:51.457Z,17.20
2019-03-24T10:07:22.492Z,13.10
2019-03-24T10:09:54.693Z,14.90
2019-03-24T10:12:25.805Z,16.50
2019-03-24T10:14:56.884Z,19.07
2019-03-24T10:17:28.028Z,16.77
2019-03-24T10:19:59.140Z,19.97
2019-03-24T10:22:30.227Z,20.10
2019-03-24T10:25:01.400Z,24.73
2019-03-24T10:27:32.519Z,18.37
2019-03-24T10:30:04.669Z,24.67
2019-03-24T10:32:35.837Z,20.30
2019-03-24T10:35:08.377Z,21.20
2019-03-24T10:37:39.534Z,22.27
2019-03-24T10:40:10.985Z,21.70
2019-03-24T10:42:42.117Z,18.43
2019-03-24T10:45:13.216Z,19.33
2019-03-24T10:47:44.379Z,22.67
2019-03-24T10:50:15.517Z,21.17
2019-03-24T10:52:46.557Z,21.23
2019-03-24T10:55:18.443Z,18.13
2019-03-24T10:57:49.511Z,18.83
2019-03-24T11:00:39.691Z,16.40
2019-03-24T11:03:10.777Z,22.53
2019-03-24T11:05:41.957Z,16.40
2019-03-24T11:08:14.003Z,22.63
2019-03-24T11:10:45.025Z,21.87
2019-03-24T11:13:16.209Z,19.30
2019-03-24T11:15:49.539Z,22.90
2019-03-24T11:18:20.550Z,19.90
2019-03-24T11:20:51.623Z,16.87
2019-03-24T11:23:22.640Z,15.67
2019-03-24T11:25:53.777Z,22.03
2019-03-24T11:28:24.903Z,16.83
2019-03-24T11:30:55.923Z,26.83
2019-03-24T11:33:29.477Z,20.23
2019-03-24T11:35:59.783Z,24.20
2019-03-24T11:38:30.830Z,20.83
2019-03-24T11:41:01.856Z,25.87
2019-03-24T11:43:32.901Z,17.40
2019-03-24T11:46:03.881Z,22.23
2019-03-24T11:48:36.256Z,22.97
2019-03-24T11:51:07.305Z,27.23
2019-03-24T11:53:38.511Z,23.13
2019-03-24T11:56:09.633Z,21.50
2019-03-24T11:58:40.770Z,25.17
2019-03-24T12:01:11.948Z,15.97
2019-03-24T12:03:43.047Z,17.60
2019-03-24T12:06:15.020Z,15.53
2019-03-24T12:08:46.183Z,18.03
2019-03-24T12:11:17.299Z,20.93
2019-03-24T12:13:49.453Z,24.53
2019-03-24T12:16:20.501Z,22.67
2019-03-24T12:18:52.621Z,24.33
2019-03-24T12:21:23.715Z,17.57
2019-03-24T12:23:54.873Z,20.17
2019-03-24T12:26:25.909Z,18.60
2019-03-24T12:28:56.915Z,20.67
2019-03-24T12:31:27.973Z,20.20
2019-03-24T12:33:58.985Z,20.07
2019-03-24T12:36:30.013Z,21.17
2019-03-24T12:39:01.109Z,20.03
2019-03-24T12:41:33.995Z,17.70
2019-03-24T12:44:05.080Z,20.03
2019-03-24T12:46:36.546Z,18.83
2019-03-24T12:49:07.615Z,18.77
2019-03-24T12:51:39.332Z,21.43
2019-03-24T12:54:10.475Z,17.17
2019-03-24T12:56:41.635Z,17.47
2019-03-24T12:59:13.642Z,17.67
2019-03-24T13:01:44.755Z,25.07
2019-03-24T13:04:15.971Z,18.00
2019-03-24T13:06:47.147Z,17.07
2019-03-24T13:09:18.318Z,15.00
2019-03-24T13:11:49.441Z,20.07
2019-03-24T13:14:20.588Z,16.07
2019-03-24T13:16:51.572Z,21.40
2019-03-24T13:19:22.744Z,18.17
2019-03-24T13:21:53.839Z,23.50
2019-03-24T13:24:24.973Z,22.30
2019-03-24T13:26:56.017Z,25.13
2019-03-24T13:29:27.057Z,23.73
2019-03-24T13:31:58.240Z,16.53
2019-03-24T13:34:29.293Z,21.47
2019-03-24T13:37:00.345Z,16.57
2019-03-24T13:39:31.528Z,18.10
2019-03-24T13:42:02.949Z,16.93
2019-03-24T13:44:34.064Z,18.00
2019-03-24T13:47:05.171Z,16.10
2019-03-24T13:49:36.314Z,18.13
2019-03-24T13:52:07.454Z,19.70
2019-03-24T13:54:38.615Z,23.73
2019-03-24T13:57:09.797Z,15.27
2019-03-24T13:59:40.831Z,17.90
2019-03-24T14:02:11.967Z,20.63
2019-03-24T14:04:42.955Z,19.70
2019-03-24T14:07:14.141Z,16.43
2019-03-24T14:09:45.145Z,21.17
2019-03-24T14:12:16.472Z,15.27
2019-03-24T14:14:49.464Z,20.30
2019-03-24T14:17:20.205Z,18.57
2019-03-24T14:19:51.246Z,17.77
2019-03-24T14:22:22.340Z,18.57
2019-03-24T14:24:53.443Z,21.80
2019-03-24T14:27:24.444Z,21.77
2019-03-24T14:29:57.890Z,12.70
2019-03-24T14:32:29.976Z,21.93
2019-03-24T14:35:01.031Z,27.43
2019-03-24T14:37:32.141Z,25.30
2019-03-24T14:40:03.218Z,16.43
2019-03-24T14:42:34.371Z,18.57
2019-03-24T14:45:05.745Z,22.20
2019-03-24T14:47:36.846Z,18.07
2019-03-24T14:50:08.160Z,38.00
2019-03-24T14:52:39.210Z,36.70
2019-03-24T14:55:10.445Z,25.27
2019-03-24T14:57:41.695Z,25.13
2019-03-24T15:00:13.041Z,29.77
2019-03-24T15:02:44.158Z,18.70
2019-03-24T15:05:15.339Z,20.17
2019-03-24T15:07:46.390Z,18.70
2019-03-24T15:10:17.501Z,14.80
2019-03-24T15:12:48.579Z,21.97
2019-03-24T15:15:19.684Z,26.47
2019-03-24T15:17:50.741Z,17.40
2019-03-24T15:20:21.738Z,20.90
2019-03-24T15:22:52.857Z,20.97
2019-03-24T15:25:23.903Z,22.63
2019-03-24T15:27:54.988Z,22.23
2019-03-24T15:30:26.017Z,18.67
2019-03-24T15:32:56.982Z,18.57
2019-03-24T15:35:28.006Z,23.10
2019-03-24T15:38:08.009Z,17.50
2019-03-24T15:40:31.831Z,16.17
2019-03-24T15:43:02.854Z,20.83
2019-03-24T15:45:33.889Z,26.77
2019-03-24T15:48:05.188Z,30.00
2019-03-24T15:50:36.347Z,23.40
2019-03-24T15:53:09.399Z,17.87
2019-03-24T15:55:40.427Z,18.17
2019-03-24T15:58:11.550Z,29.53
2019-03-24T16:00:47.431Z,18.87
2019-03-24T16:03:21.414Z,25.77
2019-03-24T16:05:52.502Z,29.37
2019-03-24T16:08:23.541Z,21.47
2019-03-24T16:10:54.662Z,26.53
2019-03-24T16:13:26.089Z,26.30
2019-03-24T16:15:57.125Z,23.60
2019-03-24T16:18:28.204Z,22.47
2019-03-24T16:20:59.196Z,18.60
2019-03-24T16:23:30.252Z,25.17
2019-03-24T16:26:01.362Z,24.40
2019-03-24T16:28:32.432Z,21.07
2019-03-24T16:31:03.483Z,26.90
2019-03-24T16:33:34.547Z,17.90
2019-03-24T16:36:05.586Z,23.80
2019-03-24T16:38:36.630Z,24.00
2019-03-24T16:41:08.614Z,24.90
2019-03-24T16:43:40.751Z,27.43
2019-03-24T16:46:12.894Z,29.13
2019-03-24T16:48:43.930Z,29.90
2019-03-24T16:51:14.978Z,25.97
2019-03-24T16:53:46.027Z,22.73
2019-03-24T16:56:17.064Z,26.67
2019-03-24T16:58:48.151Z,27.40
2019-03-24T17:01:19.140Z,31.13
2019-03-24T17:03:50.316Z,29.20
2019-03-24T17:06:21.386Z,30.23
2019-03-24T17:08:52.445Z,25.50
2019-03-24T17:11:23.450Z,34.60
2019-03-24T17:13:54.507Z,43.83
2019-03-24T17:16:25.614Z,31.10
2019-03-24T17:18:56.775Z,33.23
2019-03-24T17:21:27.932Z,29.93
2019-03-24T17:23:58.970Z,30.73
2019-03-24T17:26:30.068Z,31.13
2019-03-24T17:29:01.116Z,34.33
2019-03-24T17:31:32.128Z,34.20
2019-03-24T17:34:03.168Z,40.67
2019-03-24T17:36:34.267Z,50.63
2019-03-24T17:39:07.350Z,55.27
2019-03-24T17:41:38.471Z,46.63
2019-03-24T17:44:09.550Z,46.90
2019-03-24T17:46:40.578Z,50.97
2019-03-24T17:49:11.599Z,41.77
2019-03-24T17:51:42.669Z,56.00
2019-03-24T17:54:13.815Z,54.43
2019-03-24T17:56:44.913Z,55.67
2019-03-24T17:59:16.145Z,43.83
2019-03-24T18:01:47.444Z,50.87
2019-03-24T18:04:24.882Z,61.17
2019-03-24T18:06:52.281Z,44.27
2019-03-24T18:09:23.389Z,49.17
2019-03-24T18:11:54.465Z,44.13
2019-03-24T18:14:25.584Z,52.47
2019-03-24T18:16:56.681Z,63.53
2019-03-24T18:19:27.776Z,86.43
2019-03-24T18:21:58.838Z,84.70
2019-03-24T18:24:29.948Z,73.60
2019-03-24T18:27:00.984Z,48.00
2019-03-24T18:29:32.085Z,48.63
2019-03-24T18:32:03.178Z,57.50
2019-03-24T18:34:34.251Z,53.63
2019-03-24T18:37:05.332Z,56.00
2019-03-24T18:39:36.398Z,57.70
2019-03-24T18:42:07.550Z,59.90
2019-03-24T18:44:38.616Z,49.63
2019-03-24T18:47:09.624Z,43.93
2019-03-24T18:49:40.630Z,34.27
2019-03-24T18:52:22.077Z,42.03
2019-03-24T18:54:44.463Z,43.40
2019-03-24T18:57:15.558Z,41.80
2019-03-24T18:59:46.587Z,45.90
2019-03-24T19:02:17.590Z,41.77
2019-03-24T19:04:48.666Z,46.67
2019-03-24T19:07:22.717Z,42.70
2019-03-24T19:09:53.764Z,51.97
2019-03-24T19:12:24.792Z,50.23
2019-03-24T19:14:55.849Z,40.23
2019-03-24T19:17:28.100Z,39.63
2019-03-24T19:19:59.194Z,46.33
2019-03-24T19:22:33.801Z,45.87
2019-03-24T19:25:02.994Z,40.67
2019-03-24T19:27:34.062Z,37.07
2019-03-24T19:30:06.071Z,45.80
2019-03-24T19:32:37.316Z,40.90
2019-03-24T19:35:10.288Z,43.07
2019-03-24T19:37:42.166Z,43.07
2019-03-24T19:40:26.425Z,36.13
2019-03-24T19:42:57.787Z,39.13
2019-03-24T19:45:28.887Z,37.97
2019-03-24T19:47:59.989Z,42.17
2019-03-24T19:50:31.082Z,39.47
2019-03-24T19:53:02.188Z,39.57
2019-03-24T19:55:33.837Z,39.93
2019-03-24T19:58:05.231Z,39.83
2019-03-24T20:00:36.403Z,40.53
2019-03-24T20:03:09.557Z,49.23
2019-03-24T20:05:41.906Z,45.23
2019-03-24T20:08:13.068Z,47.57
2019-03-24T20:10:44.327Z,45.30
2019-03-24T20:13:15.489Z,38.87
2019-03-24T20:15:47.988Z,34.23
2019-03-24T20:18:19.168Z,39.30
2019-03-24T20:20:52.137Z,39.80
2019-03-24T20:23:22.855Z,38.70
2019-03-24T20:25:54.115Z,40.33
2019-03-24T20:28:25.276Z,42.80
2019-03-24T20:30:56.368Z,42.47
2019-03-24T20:33:27.514Z,36.40
2019-03-24T20:35:58.676Z,41.47
2019-03-24T20:38:32.016Z,42.73
2019-03-24T20:41:03.133Z,35.97
2019-03-24T20:43:34.177Z,42.93
2019-03-24T20:46:05.329Z,37.87
2019-03-24T20:48:36.372Z,41.40
2019-03-24T20:51:09.503Z,34.93
2019-03-24T20:53:40.649Z,43.37
2019-03-24T20:56:11.716Z,39.00
2019-03-24T20:58:42.840Z,34.97
2019-03-24T21:01:14.839Z,42.23
2019-03-24T21:03:45.970Z,42.50
2019-03-24T21:06:17.157Z,43.77
2019-03-24T21:08:48.417Z,43.03
2019-03-24T21:11:19.507Z,46.40
2019-03-24T21:13:50.547Z,41.57
2019-03-24T21:16:21.857Z,41.73
2019-03-24T21:18:52.913Z,37.17
2019-03-24T21:21:23.908Z,50.33
2019-03-24T21:23:55.003Z,43.10
2019-03-24T21:26:30.186Z,48.20
2019-03-24T21:29:02.313Z,47.50
2019-03-24T21:31:33.489Z,41.97
2019-03-24T21:34:04.609Z,49.33
2019-03-24T21:36:35.920Z,45.27
2019-03-24T21:39:09.880Z,46.07
2019-03-24T21:41:41.448Z,43.13
2019-03-24T21:44:12.523Z,44.07
2019-03-24T21:46:45.857Z,47.97
2019-03-24T21:49:17.025Z,52.60
2019-03-24T21:51:49.471Z,47.93
2019-03-24T21:54:20.506Z,44.53
2019-03-24T21:56:51.556Z,47.33
2019-03-24T21:59:22.649Z,47.33
2019-03-24T22:01:53.737Z,48.10
2019-03-24T22:04:24.809Z,51.50
2019-03-24T22:06:55.836Z,56.43
2019-03-24T22:09:26.825Z,50.43
2019-03-24T22:11:57.906Z,54.77
2019-03-24T22:14:28.999Z,55.37
2019-03-24T22:17:00.030Z,47.20
2019-03-24T22:19:31.165Z,70.30
2019-03-24T22:22:02.201Z,63.60
2019-03-24T22:24:33.278Z,59.93
2019-03-24T22:27:04.475Z,66.10
2019-03-24T22:29:35.479Z,74.47
2019-03-24T22:32:06.697Z,61.73
2019-03-24T22:34:37.783Z,57.23
2019-03-24T22:37:15.803Z,64.73
2019-03-24T22:39:41.688Z,62.77
2019-03-24T22:42:12.701Z,60.90
2019-03-24T22:44:43.858Z,63.07
2019-03-24T22:47:14.932Z,69.73
2019-03-24T22:49:46.147Z,60.20
2019-03-24T22:52:17.576Z,65.03
2019-03-24T22:54:49.723Z,65.13
2019-03-24T22:57:20.808Z,62.83
2019-03-24T22:59:51.945Z,61.90
2019-03-24T23:02:23.009Z,58.50
2019-03-24T23:04:54.153Z,61.50
2019-03-24T23:07:25.153Z,55.10
2019-03-24T23:09:56.208Z,59.97
2019-03-24T23:12:28.796Z,67.00
2019-03-24T23:14:59.892Z,72.23
2019-03-24T23:17:32.183Z,61.87
2019-03-24T23:20:03.235Z,56.80
2019-03-24T23:22:34.256Z,56.73
2019-03-24T23:25:05.957Z,62.77
2019-03-24T23:27:37.013Z,67.30
2019-03-24T23:30:08.407Z,62.40
2019-03-24T23:32:39.417Z,65.00
2019-03-24T23:35:10.813Z,58.97
2019-03-24T23:37:41.895Z,62.03
2019-03-24T23:40:13.132Z,60.93
2019-03-24T23:42:44.256Z,71.77
2019-03-24T23:45:15.392Z,63.20
2019-03-24T23:47:46.483Z,65.93
2019-03-24T23:50:17.537Z,65.67
2019-03-24T23:52:48.508Z,70.13
2019-03-24T23:55:21.451Z,71.60
2019-03-24T23:57:52.171Z,62.83
